Share

Annamoriah, WV

Reedy, WV (KWVREEDY2) Elev 750 ft | 38.89 °N, 81.40 °W | Change Station

Current weather conditions updated 1 minute ago

Clear
Clear
35.3 °F
Feels Like 35 °F
N
0.0
Wind Variable Wind from SSW
Gusts 0.0 mph
Sunrise 6:40 AM
Sunset 8:08 PM
Moon Waning Gibbous

Today is forecast to be nearly the same temperature as yesterday.

Pressure 30.12 in
Visibility 10.0 miles
Clouds Clear
Windchill 35 °F
Dew Point 33 °F
Humidity 90%
Rainfall 0.00 in
Snow Depth Not available.
UV 0 out of 16
Pollen 10.00 out of 12
Air Quality Not available.
Flu Activity Sporadic
METAR KPKB 210953Z AUTO 00000KT 10SM CLR 06/01 A3012 RMK AO2 SLPNO T00610011

More Conditions Fewer Conditions

Pressure 30.12 in
Visibility 10.0 miles
Clouds Clear
Windchill 35 °F
Dew Point 33 °F
Humidity 90%
Rainfall 0.00 in
Snow Depth Not available.
UV 0 out of 16
Pollen 10.00 out of 12
Air Quality Not available.
Flu Activity Sporadic
METAR KPKB 210953Z AUTO 00000KT 10SM CLR 06/01 A3012 RMK AO2 SLPNO T00610011

More Conditions Fewer Conditions

10-Day Weather Forecast

Almanac

Astronomy

Apr. 21, 2014 Rise Set
Actual Time 6:40 AM EDT 8:08 PM EDT
Civil Twilight 6:12 AM EDT 8:36 PM EDT
Nautical Twilight 5:38 AM EDT 9:09 PM EDT
Astronomical Twilight 5:03 AM EDT 9:45 PM EDT
Moon 1:36 AM EDT 12:05 PM EDT
Length of Visible Light 14h 24m
Length of Day
13h 28m
Tomorrow will be 2m 20s longer.
Waning Gibbous, 60% of the Moon is Illuminated
Today
Waning Gibbous
Apr 22
Last Quarter
Apr 29
New
May 6
First Quarter
May 14
Full

Today's Extremes

State Highs State Lows

Community

  • Snowy Robin
    Snowy Robin
  • Sun Pillar and Geese
    Sun Pillar and Geese
  • Showers on the Way
    Showers on the Way
  • Easter Morning Fog
    Easter Morning Fog
  • Easter Dance
    Easter Dance

WunderPhotos

Upload Photos

1,703,587 photos uploaded!

WunderBlogs® & News

Nearby

Snow Depth

Station Depth Elevation
No new snow has been reported.

Coastal Water Temperatures

Place Temperature
No Stations Reporting

Earthquake Activity

City Distance Mag. Time & Date
No recent earthquake activity has been reported nearby.
Minimum magnitude displayed is 2.5.

Nearby Weather Stations

Station Location Temp. Windchill Dew Point Humidity Wind Precip. Elev Updated Type
Reedy, WV, Reedy, WV 35.3 °F 35 °F 33 °F 90% SSW  at  0.0 mph 0.00 in / hr 750 ft 6:40 AM EDT Normal
Deerfield, Spencer, WV 41.8 °F 42 °F 34 °F 75% ENE  at  0.0 mph 0.00 in / hr 950 ft 6:40 AM EDT Normal
Park Avenue, Spencer, WV 38.6 °F 39 °F 35 °F 87% WNW  at  0.0 mph 0.00 in / hr 820 ft 6:41 AM EDT Rapid Fire
Arnoldsburg, WV 38.0 °F 38 °F 37 °F 95% SSE  at  0.0 mph 0.36 in / hr 729 ft 6:30 AM EDT Normal
Brooklyn Point, Glenville, WV 37.6 °F 38 °F 35 °F 89% NNW  at  0.0 mph - / hr 732 ft 5:30 AM CDT Normal

Show More Stations Show Fewer Stations

What do you think?

We're not finished. Please let us know what you like, what you don't like, and what you are still missing.